Abbottstown, Pennsylvania
Current Conditions -  °F | °C
As of 12:53 PM on Friday 24 Oct 2014 (Local Time) from KTHV Reporting Station
Clear Clear  
Wind Chill: 65°   Ceiling: Unl
Heat Index: 65°   Visibility: 10mi
Dew Point: 36°   Wind: 16mph
Humidity: 34%   Direction: 290°WNW
Pressure: 29.92"   Gusts: 23mph
Location:  39.89°N, 76.98°W
Report Text: KTHV 241653Z AUTO 29014G20KT 10SM CLR 18/02 A2992 RMK AO2 SLP131 T01830022
Loading
Personal Weather Stations






























Interactive Weather Map
Tropical Storm Tracking
New forecast layout! Learn more

10-Day Weather Forecast

Advertisements
Track Severe Weather on mobile